Latest Weather Observations for Swan Hill

IDV60801

Issued at 9:02 pm EDT Thursday 18 December 2014 (issued every 30 minutes, with the page automatically refreshed every 10 minutes)

About weather observations | Map of weather stations | Latest weather observations for VIC | Other Formats
Station Details ID: 077094 Name: SWAN HILL AERODROME Lat: -35.38 Lon: 143.54 Height: 71.0 m
Data from the previous 72 hours. | See also: Recent months at Swan Hill
Date/Time
EDT
Temp
°C
App
Temp
°C
Dew
Point
Rel
Hum
%
Delta-T
°C
Wind Press
QNH
hPa
Press
MSL
hPa
Rain
since 9 am
mm
Dir
 
Spd
km/h
Gust
km/h
Spd
kts
Gust
kts
18/09:00pm 20.5 15.0 4.2 34 7.9 WSW 22 28 12 15 1012.0 - 0.0
18/08:30pm 21.0 14.4 4.1 33 8.2 SW 28 39 15 21 1011.8 - 0.0
18/08:00pm 21.3 14.1 4.9 34 8.1 SW 32 46 17 25 1011.4 - 0.0
18/07:30pm 22.8 14.7 5.3 32 8.8 SW 37 50 20 27 1010.8 - 0.0
18/07:00pm 23.5 14.6 5.3 30 9.2 SW 41 54 22 29 1010.1 - 0.0
18/06:34pm 24.4 15.6 5.6 29 9.6 SW 41 59 22 32 1009.3 - 0.0
18/06:30pm 24.6 15.1 5.0 28 9.9 SW 44 61 24 33 1009.3 - 0.0
18/06:18pm 25.5 15.9 3.5 24 10.9 WSW 43 61 23 33 1008.9 - 0.0
18/06:00pm 25.5 16.3 3.5 24 10.9 SW 41 56 22 30 1008.6 1008.3 0.0
18/05:44pm 26.0 17.0 2.7 22 11.4 SW 39 65 21 35 1008.5 - 0.0
18/05:30pm 25.8 16.5 2.7 22 11.3 WSW 41 52 22 28 1008.3 - 0.0
18/05:10pm 27.3 18.1 1.0 18 12.6 WSW 39 57 21 31 1008.0 - 0.0
18/05:00pm 27.7 18.6 -0.9 15 13.3 WSW 37 59 20 32 1008.0 - 0.0
18/04:57pm 26.9 17.9 0.1 17 12.6 SW 37 59 20 32 1008.0 - 0.0
18/04:50pm 27.3 17.8 -1.1 15 13.1 W 39 57 21 31 1008.1 - 0.0
18/04:38pm 27.4 17.5 -1.2 15 13.2 W 41 57 22 31 1007.7 - 0.0
18/04:30pm 26.8 17.7 -0.5 16 12.7 SW 37 50 20 27 1008.0 - 0.0
18/04:00pm 26.0 16.6 -0.3 18 12.2 WSW 39 50 21 27 1008.0 - 0.0
18/03:34pm 25.2 16.2 0.3 19 11.6 WSW 37 56 20 30 1008.0 - 0.0
18/03:30pm 26.0 16.2 0.1 18 12.1 WSW 41 56 22 30 1007.9 - 0.0
18/03:23pm 26.3 16.8 1.5 20 11.9 WSW 41 56 22 30 1007.9 - 0.0
18/03:05pm 26.4 17.9 0.6 18 12.2 W 35 56 19 30 1007.5 - 0.0
18/03:00pm 26.2 17.7 0.9 19 12.0 W 35 52 19 28 1007.7 1007.5 0.0
18/02:46pm 27.0 18.5 1.2 18 12.4 W 35 54 19 29 1007.6 - 0.0
18/02:30pm 27.4 17.1 0.5 17 12.8 W 44 54 24 29 1007.6 - 0.0
18/02:26pm 25.9 18.0 2.5 22 11.4 SW 33 57 18 31 1007.8 - 0.0
18/02:00pm 26.6 17.0 1.4 19 12.1 W 41 63 22 34 1007.9 - 0.0
18/01:44pm 27.2 28.3 26.9 98 0.2 W 35 56 19 30 1008.2 - 0.0
18/01:30pm 26.2 26.0 26.2 100 0.0 W 39 56 21 30 1008.1 - 0.0
18/01:18pm 26.6 26.5 26.3 98 0.2 W 39 57 21 31 1008.2 - 0.0
18/01:00pm 26.1 26.2 26.1 100 0.0 W 37 48 20 26 1008.1 - 0.0
18/12:31pm 25.5 25.4 25.2 98 0.2 W 35 54 19 29 1008.2 - 0.0
18/12:30pm 25.3 24.9 25.2 99 0.1 W 37 54 20 29 1008.3 - 0.0
18/12:18pm 25.2 24.8 25.2 100 0.0 W 37 48 20 26 1008.4 - 0.0
18/12:11pm 25.2 24.8 25.2 100 0.0 WNW 37 54 20 29 1008.2 - 0.0
18/12:00pm 25.2 25.1 25.2 100 0.0 W 35 56 19 30 1008.4 1008.2 0.0
18/11:45am 25.2 25.9 24.9 98 0.2 W 30 50 16 27 1008.4 - 0.0
18/11:30am 24.7 25.7 24.7 100 0.0 WSW 28 37 15 20 1008.5 - 0.0
18/11:01am 24.2 24.8 24.2 100 0.0 W 28 46 15 25 1008.7 - 0.0
18/11:00am 24.1 25.1 24.1 100 0.0 W 26 46 14 25 1008.6 - 0.0
18/10:30am 23.8 24.8 23.5 98 0.2 W 24 33 13 18 1008.7 - 0.0
18/10:00am 22.2 23.3 22.0 99 0.1 W 19 30 10 16 1008.7 - 0.0
18/09:30am 20.9 21.2 20.7 99 0.1 SW 20 32 11 17 1008.6 - 0.0
18/09:00am 20.0 20.1 20.0 100 0.0 SW 19 28 10 15 1008.6 1008.4 0.0
18/08:30am 19.2 19.2 19.0 99 0.1 SW 17 20 9 11 1008.3 - 0.0
18/08:00am 17.1 17.7 16.9 99 0.1 SW 9 13 5 7 1007.9 - 0.0
18/07:30am 15.3 14.8 15.0 98 0.2 SW 11 13 6 7 1007.5 - 0.0
18/07:00am 13.5 12.5 12.2 92 0.7 SW 9 11 5 6 1007.2 - 0.0
18/06:30am 12.8 9.1 4.5 57 3.8 WSW 13 17 7 9 1007.3 - 0.0
18/06:00am 9.7 5.6 -2.7 41 4.7 SW 9 11 5 6 1007.1 1006.9 0.0
18/05:30am 10.0 6.6 -2.2 42 4.7 SW 6 7 3 4 1006.2 - 0.0
18/05:00am 10.6 7.3 -1.6 42 4.8 SW 6 7 3 4 1006.0 - 0.0
18/04:30am 10.1 7.6 -0.7 47 4.3 SW 2 7 1 4 1005.7 - 0.0
18/04:00am 10.8 8.4 -2.8 38 5.2 CALM 0 0 0 0 1005.8 - 0.0
18/03:30am 10.9 8.5 -3.4 36 5.4 CALM 0 0 0 0 1005.8 - 0.0
18/03:00am 11.9 9.3 -1.7 39 5.4 W 2 9 1 5 1005.7 1005.5 0.0
18/02:30am 13.0 10.4 -1.7 36 5.9 W 2 6 1 3 1006.1 - 0.0
18/02:00am 12.7 9.1 -1.8 36 5.8 W 7 9 4 5 1006.2 - 0.0
18/01:30am 12.4 8.2 -3.5 33 6.1 W 9 11 5 6 1006.4 - 0.0
18/01:00am 14.1 10.8 -1.6 34 6.4 W 6 7 3 4 1006.3 - 0.0
18/12:30am 14.4 11.1 -1.1 34 6.4 W 6 7 3 4 1006.5 - 0.0
18/12:00am 14.7 12.5 -1.3 33 6.6 CALM 0 0 0 0 1006.4 1006.1 0.0
 
Date/Time
EDT
Temp
°C
App
Temp
°C
Dew
Point
Rel
Hum
%
Delta-T
°C
Wind Press
QNH
hPa
Press
MSL
hPa
Rain
since 9 am
mm
Dir
 
Spd
km/h
Gust
km/h
Spd
kts
Gust
kts
17/11:30pm 15.3 14.0 4.1 47 5.2 CALM 0 0 0 0 1006.4 - 0.0
17/11:00pm 15.9 14.2 2.1 39 6.2 CALM 0 0 0 0 1006.5 - 0.0
17/10:30pm 17.0 15.1 0.6 33 7.2 CALM 0 0 0 0 1006.9 - 0.0
17/10:00pm 19.6 16.1 -1.2 24 9.0 W 7 9 4 5 1006.9 - 0.0
17/09:30pm 19.8 17.2 0.7 28 8.6 W 4 6 2 3 1006.8 - 0.0
17/09:00pm 21.6 17.9 -2.8 19 10.4 W 7 11 4 6 1006.9 1006.6 0.0
17/08:30pm 23.0 18.0 -4.5 15 11.5 W 13 17 7 9 1006.8 - 0.0
17/08:00pm 24.6 18.6 -7.1 11 12.8 WSW 17 22 9 12 1006.7 - 0.0
17/07:30pm 25.1 18.6 -6.1 12 12.9 W 20 28 11 15 1006.5 - 0.0
17/07:00pm 25.6 20.1 -5.1 13 12.9 W 15 22 8 12 1006.3 - 0.0
17/06:30pm 25.5 20.1 -4.9 13 12.9 WSW 15 33 8 18 1006.1 - 0.0
17/06:00pm 25.4 21.7 -3.1 15 12.5 SW 7 17 4 9 1005.9 1005.6 0.0
17/05:30pm 25.8 21.4 -6.2 11 13.2 SSW 9 20 5 11 1005.9 - 0.0
17/05:00pm 25.0 20.3 -4.7 13 12.6 WSW 11 20 6 11 1006.2 - 0.0
17/04:30pm 25.0 19.9 -5.2 13 12.6 WSW 13 24 7 13 1006.5 - 0.0
17/04:00pm 25.3 19.8 -5.5 12 12.9 W 15 24 8 13 1006.7 - 0.0
17/03:30pm 24.5 20.1 -2.6 16 11.9 SE 11 20 6 11 1007.0 - 0.0
17/03:00pm 24.7 18.6 -4.0 14 12.3 WNW 19 28 10 15 1007.5 1007.1 0.0
17/02:30pm 23.7 18.8 -3.2 16 11.6 SW 13 22 7 12 1007.8 - 0.0
17/02:00pm 23.4 17.9 -5.0 14 11.8 W 15 26 8 14 1008.2 - 0.0
17/01:30pm 22.3 17.0 -3.4 17 10.9 W 15 22 8 12 1008.6 - 0.0
17/01:00pm 22.0 17.6 -2.3 19 10.5 SW 11 19 6 10 1009.0 - 0.0
17/12:30pm 20.6 15.7 -0.8 24 9.4 SW 15 24 8 13 1009.3 - 0.0
17/12:00pm 20.2 16.1 -0.1 25 9.0 SW 11 20 6 11 1009.5 1009.2 0.0
17/11:30am 20.4 15.8 -0.8 24 9.3 SW 13 19 7 10 1009.5 - 0.0
17/11:00am 19.0 14.8 -0.9 26 8.6 W 11 17 6 9 1009.8 - 0.0
17/10:30am 17.8 13.9 1.2 32 7.4 SW 11 20 6 11 1010.1 - 0.0
17/10:00am 17.4 12.9 1.9 35 7.0 SSW 15 20 8 11 1010.2 - 0.0
17/09:30am 17.1 13.5 2.7 38 6.6 SSW 11 22 6 12 1010.2 - 0.0
17/09:00am 16.1 11.8 3.0 41 6.0 SSW 15 24 8 13 1010.1 1009.9 0.0
17/08:30am 15.5 11.6 3.3 44 5.6 S 13 19 7 10 1009.9 - 0.0
17/08:00am 14.1 10.2 3.5 49 4.8 S 13 19 7 10 1009.7 - 0.0
17/07:30am 12.6 8.8 3.7 54 4.0 SSW 13 19 7 10 1009.6 - 0.0
17/07:00am 10.3 7.4 2.6 59 3.3 SSW 7 9 4 5 1009.3 - 0.0
17/06:30am 7.5 5.4 1.4 65 2.5 SSW 2 6 1 3 1008.9 - 0.0
17/06:00am 9.3 6.4 2.5 62 2.9 SSW 7 9 4 5 1008.7 1008.4 0.0
17/05:30am 9.7 6.8 2.4 60 3.1 SSW 7 11 4 6 1008.2 - 0.0
17/05:00am 9.8 7.1 2.6 61 3.1 SSW 6 9 3 5 1007.8 - 0.0
17/04:30am 10.9 7.9 2.3 55 3.7 SSW 7 13 4 7 1007.7 - 0.0
17/04:00am 11.8 7.2 1.8 50 4.3 SSW 15 19 8 10 1007.3 - 0.0
17/03:30am 12.5 8.0 1.9 48 4.6 SSW 15 20 8 11 1007.4 - 0.0
17/03:00am 13.2 8.3 1.7 45 5.0 SW 17 22 9 12 1007.4 1007.0 0.0
17/02:30am 13.2 9.0 1.7 45 5.0 SSW 13 19 7 10 1007.4 - 0.0
17/02:00am 13.6 9.0 1.3 43 5.3 SSW 15 19 8 10 1007.2 - 0.0
17/01:30am 14.1 9.1 1.1 41 5.6 SW 17 20 9 11 1007.2 - 0.0
17/01:00am 14.7 9.6 0.8 38 6.0 SW 17 22 9 12 1007.2 - 0.0
17/12:30am 14.9 10.1 0.1 36 6.3 SSW 15 17 8 9 1007.1 - 0.0
17/12:00am 15.8 10.6 -0.1 34 6.8 SW 17 22 9 12 1006.9 1006.7 0.0
 
Date/Time
EDT
Temp
°C
App
Temp
°C
Dew
Point
Rel
Hum
%
Delta-T
°C
Wind Press
QNH
hPa
Press
MSL
hPa
Rain
since 9 am
mm
Dir
 
Spd
km/h
Gust
km/h
Spd
kts
Gust
kts
16/11:30pm 16.8 10.5 -0.9 30 7.5 SW 22 28 12 15 1006.6 - 0.0
16/11:00pm 17.3 11.0 -1.1 28 7.8 SW 22 30 12 16 1006.3 - 0.0
16/10:30pm 18.1 10.3 -1.0 27 8.2 WSW 30 39 16 21 1006.0 - 0.0
16/10:00pm 18.9 10.6 -0.6 27 8.5 SW 33 44 18 24 1005.6 - 0.0
16/09:30pm 19.6 10.8 1.1 29 8.4 SW 37 56 20 30 1004.9 - 0.0
16/09:04pm 20.2 11.7 1.1 28 8.7 SW 35 54 19 29 1004.0 - 0.0
16/09:00pm 20.3 11.4 1.0 27 8.8 SW 37 54 20 29 1003.9 1003.7 0.0
16/08:30pm 21.3 11.3 2.1 28 9.0 SW 44 63 24 34 1003.0 - 0.0
16/08:09pm 22.0 11.7 2.7 28 9.2 SW 46 67 25 36 1002.3 - 0.0
16/08:00pm 22.4 12.1 2.5 27 9.4 SW 46 61 25 33 1002.2 - 0.0
16/07:30pm 23.8 13.3 3.7 27 9.9 SW 48 69 26 37 1001.2 - 0.0
16/07:02pm 24.9 13.9 6.8 31 9.5 WSW 54 76 29 41 1000.2 - 0.0
16/07:00pm 25.2 14.6 7.0 31 9.6 WSW 52 67 28 36 1000.3 - 0.0
16/06:30pm 25.3 14.1 7.5 32 9.4 SW 56 74 30 40 999.8 - 0.0
16/06:02pm 25.8 15.3 7.5 31 9.7 SW 52 70 28 38 999.2 - 0.0
16/06:00pm 25.8 15.0 7.5 31 9.8 SW 54 70 29 38 999.2 998.9 0.0
16/05:32pm 28.6 17.7 7.1 25 11.5 SW 54 78 29 42 998.0 - 0.0
16/05:30pm 29.5 18.7 6.0 22 12.4 SW 52 72 28 39 997.7 - 0.0
16/05:28pm 29.9 20.1 5.5 21 12.8 SW 46 72 25 39 997.5 - 0.0
16/05:09pm 32.3 19.2 -3.3 10 16.4 W 56 76 30 41 996.9 - 0.0
16/05:00pm 33.0 19.8 -3.2 9 16.8 W 57 72 31 39 996.9 - 0.0
16/04:30pm 32.9 19.4 -5.9 8 17.2 W 57 78 31 42 997.1 - 0.0
16/04:00pm 33.5 19.8 -9.9 5 18.1 W 56 80 30 43 996.6 - 0.0
16/03:30pm 33.6 20.9 -12.1 5 18.4 W 50 70 27 38 996.9 - 0.0
16/03:00pm 34.0 21.8 -10.9 5 18.6 WNW 48 67 26 36 997.0 996.7 0.0
16/02:30pm 33.1 21.7 -12.9 4 18.2 WNW 43 67 23 36 997.3 - 0.0
16/02:00pm 34.1 23.4 -13.3 4 18.8 WNW 39 59 21 32 997.7 - 0.0
16/01:54pm 33.0 21.9 -14.7 4 18.3 NW 41 59 22 32 997.8 - 0.0
16/01:30pm 32.0 22.3 -10.5 6 17.3 NW 35 50 19 27 997.7 - 0.0
16/01:20pm 31.7 22.4 -12.9 5 17.4 NW 32 50 17 27 997.9 - 0.0
16/01:00pm 31.4 21.3 -17.2 3 17.6 WNW 35 46 19 25 998.3 - 0.0
16/12:30pm 31.1 21.0 -16.8 4 17.4 WNW 35 48 19 26 998.9 - 0.0
16/12:00pm 30.1 21.9 -7.4 8 15.9 WNW 28 43 15 23 999.3 998.9 0.0
16/11:30am 28.8 20.2 -8.2 8 15.2 WNW 30 43 16 23 999.7 - 0.0
16/11:00am 27.5 21.0 -2.6 14 13.5 NW 22 35 12 19 1000.1 - 0.0
16/10:30am 26.1 19.1 2.0 21 11.6 WNW 28 37 15 20 1000.5 - 0.0
16/10:00am 25.2 19.3 4.0 25 10.5 WNW 24 32 13 17 1000.5 - 0.0
16/09:30am 23.2 18.9 7.2 35 8.3 NW 19 24 10 13 1000.1 - 0.0
16/09:00am 21.5 17.3 7.5 40 7.3 W 19 26 10 14 1000.4 1000.1 0.0
16/08:30am 20.6 15.7 8.5 45 6.4 W 24 30 13 16 1000.7 - 0.0
16/08:00am 18.7 13.9 8.8 52 5.2 W 24 30 13 16 1000.5 - 0.0
16/07:30am 17.5 12.4 9.1 58 4.4 W 26 32 14 17 999.9 - 0.0
16/07:00am 17.2 12.0 9.0 58 4.3 W 26 35 14 19 999.4 - 0.0
16/06:30am 16.7 12.6 8.8 59 4.1 W 20 24 11 13 998.6 - 0.0
16/06:00am 16.9 12.4 8.6 58 4.3 W 22 26 12 14 998.0 997.7 0.0
16/05:30am 17.4 13.7 7.8 53 4.9 W 17 20 9 11 997.5 - 0.0
16/05:00am 18.0 13.1 6.9 48 5.6 W 22 28 12 15 997.8 - 0.0
16/04:30am 18.4 14.0 6.4 45 6.0 WNW 19 26 10 14 997.5 - 0.0
16/04:00am 19.6 14.8 4.7 37 7.2 WSW 19 22 10 12 997.1 - 0.0
16/03:30am 20.7 15.0 3.1 31 8.3 WSW 22 28 12 15 997.1 - 0.0
16/03:00am 21.7 16.0 2.6 28 9.1 WSW 22 28 12 15 997.4 997.1 0.0
16/02:30am 23.1 16.1 1.8 24 10.0 WSW 28 35 15 19 997.4 - 0.0
16/02:00am 24.7 18.5 2.1 23 10.8 WSW 24 30 13 16 997.3 - 0.0
16/01:30am 24.9 20.3 3.5 25 10.5 WSW 17 20 9 11 997.4 - 0.0
16/01:00am 26.0 21.4 3.9 24 11.0 WSW 17 20 9 11 997.8 - 0.0
16/12:30am 26.0 21.9 6.1 28 10.3 W 17 19 9 10 998.3 - 0.0
16/12:00am 26.2 23.1 10.2 36 9.0 W 17 19 9 10 998.6 998.3 0.0
 
Date/Time
EDT
Temp
°C
App
Temp
°C
Dew
Point
Rel
Hum
%
Delta-T
°C
Wind Press
QNH
hPa
Press
MSL
hPa
Rain
since 9 am
mm
Dir
 
Spd
km/h
Gust
km/h
Spd
kts
Gust
kts
15/11:30pm 25.8 23.9 11.9 42 8.0 NNW 13 15 7 8 998.9 - 0.0
15/11:00pm 25.9 24.6 13.8 47 7.2 WNW 13 15 7 8 998.6 - 0.0
15/10:30pm 27.3 25.1 12.2 39 8.8 W 15 19 8 10 998.5 - 0.0
15/10:00pm 26.1 24.9 15.1 50 6.7 NNW 15 19 8 10 998.4 - 0.0
15/09:59pm 26.2 24.9 14.8 49 6.9 NNW 15 19 8 10 998.4 - 0.0
15/09:33pm 31.2 25.1 6.8 21 13.2 W 28 50 15 27 997.8 - 0.0
15/09:30pm 30.3 25.1 8.9 26 11.9 W 26 39 14 21 997.9 - 0.0

Other Formats:

Comma delimited format used in spreadsheet applications
http://www.bom.gov.au/fwo/IDV60801/IDV60801.94843.axf

JavaScript Object Notation format (JSON) in row-major order
http://www.bom.gov.au/fwo/IDV60801/IDV60801.94843.json